Time;durP1;ratioP1;P1;durP2;ratioP2;P2;SDS_P1;SDS_P2;PMS_P1;PMS_P2;Temp;Humidity;BMP_temperature;BMP_pressure;BME280_temperature;BME280_humidity;BME280_pressure;Samples;Min_cycle;Max_cycle;Signal;HPM_P1;HPM_P2
2021/03/14 00:01:00;;;;;;;3.50;1.80;;;;;;;7.30;57.35;98343.46;124546;1105;104133;-77
2021/03/14 00:03:29;;;;;;;3.10;1.73;;;;;;;7.27;57.55;98353.98;124646;1105;104088;-77
2021/03/14 00:05:59;;;;;;;2.83;1.67;;;;;;;7.21;57.64;98352.55;124603;1106;104207;-78
2021/03/14 00:08:29;;;;;;;4.15;2.10;;;;;;;7.15;58.13;98355.41;124545;1106;104223;-77
2021/03/14 00:10:58;;;;;;;5.10;1.80;;;;;;;7.08;58.03;98355.80;124517;1105;104207;-78
2021/03/14 00:13:36;;;;;;;3.20;2.00;;;;;;;7.02;58.03;98362.12;124470;1106;104105;-77
2021/03/14 00:16:06;;;;;;;4.70;2.23;;;;;;;6.95;58.59;98358.12;124567;1105;104053;-78
2021/03/14 00:18:39;;;;;;;3.23;1.77;;;;;;;6.89;58.40;98363.61;124560;1105;104144;-78
2021/03/14 00:21:07;;;;;;;4.00;2.03;;;;;;;6.83;58.62;98358.72;124635;1109;104220;-77
2021/03/14 00:23:35;;;;;;;4.53;2.10;;;;;;;6.77;58.92;98374.53;124821;1105;104109;-77
2021/03/14 00:26:03;;;;;;;4.13;2.27;;;;;;;6.70;59.53;98355.85;124548;1109;104277;-76
2021/03/14 00:28:30;;;;;;;4.63;2.20;;;;;;;6.66;59.74;98362.94;124632;1105;103973;-77
2021/03/14 00:30:58;;;;;;;3.93;2.30;;;;;;;6.61;60.12;98377.83;124585;1105;104191;-78
2021/03/14 00:33:25;;;;;;;6.03;1.93;;;;;;;6.54;60.29;98370.42;124551;1106;104302;-77
2021/03/14 00:35:52;;;;;;;5.43;2.30;;;;;;;6.46;60.12;98365.57;124499;1109;104300;-78
2021/03/14 00:38:20;;;;;;;4.90;2.40;;;;;;;6.39;60.50;98368.52;124670;1105;104140;-77
2021/03/14 00:40:47;;;;;;;4.23;2.03;;;;;;;6.32;60.66;98368.80;124547;1105;104144;-76
2021/03/14 00:43:14;;;;;;;4.67;2.35;;;;;;;6.28;61.29;98375.03;124557;1106;104217;-77
2021/03/14 00:45:41;;;;;;;4.65;2.52;;;;;;;6.25;61.67;98374.30;124571;1105;101639;-77
2021/03/14 00:48:28;;;;;;;4.20;2.27;;;;;;;6.20;61.72;98378.86;124553;1105;104213;-78
2021/03/14 00:50:55;;;;;;;5.60;2.60;;;;;;;6.17;61.53;98384.17;124520;1106;104306;-77
2021/03/14 00:53:27;;;;;;;4.37;2.37;;;;;;;6.09;62.51;98386.23;124556;1105;104169;-77
2021/03/14 00:55:55;;;;;;;4.97;2.27;;;;;;;6.06;62.63;98385.47;124578;1109;102858;-77
2021/03/14 00:58:22;;;;;;;3.13;2.20;;;;;;;6.01;62.39;98384.84;124542;1106;104137;-77
2021/03/14 01:00:49;;;;;;;4.53;2.23;;;;;;;5.98;62.67;98386.72;124580;1105;104261;-77
2021/03/14 01:03:17;;;;;;;4.70;2.20;;;;;;;5.94;62.47;98377.42;124515;1105;104313;-77
2021/03/14 01:05:44;;;;;;;5.13;2.63;;;;;;;5.92;63.13;98389.55;124573;1106;104197;-77
2021/03/14 01:08:16;;;;;;;2.90;1.83;;;;;;;5.90;63.17;98389.62;124584;1105;104194;-76
2021/03/14 01:10:45;;;;;;;3.30;1.90;;;;;;;5.90;63.70;98389.62;124805;1105;102328;-77
2021/03/14 01:13:13;;;;;;;3.97;2.00;;;;;;;5.90;63.39;98394.80;124577;1105;104297;-77
2021/03/14 01:15:42;;;;;;;4.30;2.30;;;;;;;5.90;63.83;98379.27;124502;1109;104297;-77
2021/03/14 01:18:12;;;;;;;5.00;2.17;;;;;;;5.91;63.21;98386.13;124551;1105;104108;-77
2021/03/14 01:20:39;;;;;;;3.60;2.13;;;;;;;5.90;63.67;98374.09;124590;1105;104223;-76
2021/03/14 01:23:06;;;;;;;4.63;2.60;;;;;;;5.90;64.10;98376.69;124529;1105;102884;-77
2021/03/14 01:25:33;;;;;;;3.40;2.10;;;;;;;5.91;63.81;98387.88;124514;1106;104220;-77
2021/03/14 01:28:00;;;;;;;5.43;2.50;;;;;;;5.91;63.52;98373.19;124753;1105;104107;-77
2021/03/14 01:30:27;;;;;;;4.43;1.90;;;;;;;5.92;63.55;98371.44;124504;1105;104239;-76
2021/03/14 01:32:55;;;;;;;5.37;2.30;;;;;;;5.91;64.25;98373.19;124602;1105;104226;-77
2021/03/14 01:35:22;;;;;;;3.10;1.80;;;;;;;5.87;63.76;98357.84;124571;1106;104198;-76
2021/03/14 01:37:49;;;;;;;4.37;2.40;;;;;;;5.84;63.80;98360.56;124611;1105;104206;-77
2021/03/14 01:40:18;;;;;;;3.80;2.20;;;;;;;5.80;64.41;98359.86;124773;1105;104213;-77
2021/03/14 01:42:45;;;;;;;3.67;2.00;;;;;;;5.74;64.63;98355.80;124787;1105;104081;-77
2021/03/14 01:45:14;;;;;;;3.90;2.25;;;;;;;5.70;64.76;98363.73;124563;1105;104227;-77
2021/03/14 01:47:44;;;;;;;4.63;1.90;;;;;;;5.65;64.10;98369.11;124593;1106;104663;-77
2021/03/14 01:50:20;;;;;;;2.57;1.70;;;;;;;5.61;64.97;98354.63;124490;1106;104040;-78
2021/03/14 01:52:49;;;;;;;4.53;2.30;;;;;;;5.57;64.93;98362.59;124537;1108;104249;-76
2021/03/14 01:55:17;;;;;;;3.70;2.27;;;;;;;5.52;65.17;98336.90;124598;1109;102092;-77
2021/03/14 01:57:46;;;;;;;3.37;2.33;;;;;;;5.48;64.47;98331.93;124505;1106;104162;-76
2021/03/14 02:00:16;;;;;;;3.90;2.07;;;;;;;5.43;64.56;98339.89;124559;1106;104176;-76
2021/03/14 02:02:44;;;;;;;3.17;2.00;;;;;;;5.38;64.77;98350.39;124733;1105;104120;-77
2021/03/14 02:05:14;;;;;;;4.93;2.30;;;;;;;5.35;65.47;98336.77;124575;1105;104018;-77
2021/03/14 02:07:44;;;;;;;4.23;1.90;;;;;;;5.31;65.26;98325.72;124589;1104;104207;-77
2021/03/14 02:10:13;;;;;;;3.23;2.30;;;;;;;5.27;65.54;98326.75;124751;1105;104085;-77
2021/03/14 02:13:03;;;;;;;3.90;2.20;;;;;;;5.23;65.48;98337.28;124545;1106;104230;-77
2021/03/14 02:15:34;;;;;;;3.93;2.10;;;;;;;5.19;65.45;98346.05;124504;1105;104216;-78
2021/03/14 02:18:03;;;;;;;6.70;2.23;;;;;;;5.14;65.36;98360.00;124592;1105;103948;-77
2021/03/14 02:20:32;;;;;;;4.57;2.37;;;;;;;5.11;65.43;98348.95;124569;1105;104309;-77
2021/03/14 02:23:24;;;;;;;4.63;2.40;;;;;;;5.07;65.87;98348.24;124676;1106;104168;-76
2021/03/14 02:25:58;;;;;;;3.20;1.90;;;;;;;5.04;66.11;98350.11;124522;1106;103046;-77
2021/03/14 02:28:26;;;;;;;4.33;2.40;;;;;;;5.00;65.39;98351.11;124640;1106;104447;-77
2021/03/14 02:30:54;;;;;;;4.43;2.23;;;;;;;4.97;66.17;98340.91;124538;1106;103948;-77
2021/03/14 02:33:27;;;;;;;5.07;2.27;;;;;;;4.94;66.15;98335.87;124514;1106;104123;-77
2021/03/14 02:35:56;;;;;;;4.30;2.27;;;;;;;4.91;66.08;98342.00;124527;1108;104216;-77
2021/03/14 02:38:24;;;;;;;4.47;2.37;;;;;;;4.89;65.78;98342.97;124613;1104;104170;-77
2021/03/14 02:40:55;;;;;;;4.53;2.37;;;;;;;4.88;66.10;98356.78;124735;1105;104207;-76
2021/03/14 02:43:26;;;;;;;4.73;2.23;;;;;;;4.84;66.05;98353.45;124542;1106;103973;-77
2021/03/14 02:45:54;;;;;;;6.23;2.60;;;;;;;4.83;65.70;98364.69;124683;1105;104140;-77
2021/03/14 02:48:23;;;;;;;5.40;2.50;;;;;;;4.81;65.77;98351.00;124574;1109;104324;-77
2021/03/14 02:50:51;;;;;;;5.23;2.60;;;;;;;4.80;66.09;98351.90;124532;1105;104175;-76
2021/03/14 02:53:21;;;;;;;4.07;2.13;;;;;;;4.77;66.04;98355.45;124529;1106;103973;-77
2021/03/14 02:55:49;;;;;;;4.53;2.43;;;;;;;4.77;66.27;98352.02;124712;1105;104157;-76
2021/03/14 02:58:16;;;;;;;4.80;2.23;;;;;;;4.75;66.56;98352.09;124749;1105;104117;-77
2021/03/14 03:00:43;;;;;;;5.00;2.27;;;;;;;4.75;65.89;98352.09;124584;1105;104217;-76
2021/03/14 03:03:12;;;;;;;4.43;2.20;;;;;;;4.74;66.04;98360.73;124551;1105;104664;-77
2021/03/14 03:05:41;;;;;;;5.03;2.23;;;;;;;4.74;65.83;98355.57;124494;1105;104267;-76
2021/03/14 03:08:10;;;;;;;4.93;2.00;;;;;;;4.73;65.98;98360.80;124703;1105;104158;-77
2021/03/14 03:10:41;;;;;;;3.40;1.77;;;;;;;4.72;65.83;98356.53;124536;1105;104137;-76
2021/03/14 03:13:10;;;;;;;5.90;2.10;;;;;;;4.70;66.36;98379.00;124488;1106;102481;-78
2021/03/14 03:15:38;;;;;;;3.20;1.93;;;;;;;4.67;65.94;98369.63;124607;1108;103717;-77
2021/03/14 03:18:07;;;;;;;3.03;1.90;;;;;;;4.66;66.56;98373.08;124634;1106;103136;-76
2021/03/14 03:20:36;;;;;;;4.97;2.00;;;;;;;4.65;66.50;98380.89;124610;1105;102616;-77
2021/03/14 03:23:04;;;;;;;3.77;1.90;;;;;;;4.64;66.46;98374.05;124606;1105;104109;-77
2021/03/14 03:25:32;;;;;;;3.83;2.03;;;;;;;4.62;66.27;98387.02;124578;1105;104664;-77
2021/03/14 03:27:59;;;;;;;4.37;1.87;;;;;;;4.60;66.76;98388.82;124767;1106;104272;-76
2021/03/14 03:30:28;;;;;;;3.97;1.93;;;;;;;4.58;66.76;98393.20;124531;1105;104329;-77
2021/03/14 03:32:55;;;;;;;2.97;1.77;;;;;;;4.57;66.29;98386.36;124558;1106;104137;-77
2021/03/14 03:35:25;;;;;;;4.13;2.30;;;;;;;4.54;66.72;98391.64;124533;1105;104134;-76
2021/03/14 03:37:53;;;;;;;2.83;1.97;;;;;;;4.53;66.67;98387.38;124620;1105;104165;-77
2021/03/14 03:40:23;;;;;;;3.93;2.00;;;;;;;4.52;66.44;98396.02;124583;1106;104430;-77
2021/03/14 03:42:53;;;;;;;4.37;2.07;;;;;;;4.50;66.81;98393.50;124493;1105;104277;-77
2021/03/14 03:45:22;;;;;;;3.50;1.80;;;;;;;4.49;66.61;98393.56;124540;1105;104200;-77
2021/03/14 03:47:52;;;;;;;3.87;2.00;;;;;;;4.49;66.65;98388.39;124828;1105;104175;-77
2021/03/14 03:50:21;;;;;;;4.63;2.27;;;;;;;4.47;66.74;98408.23;124547;1105;104293;-77
2021/03/14 03:52:50;;;;;;;3.93;1.90;;;;;;;4.47;66.86;98397.91;124638;1105;104162;-76
2021/03/14 03:55:18;;;;;;;4.30;2.03;;;;;;;4.46;66.58;98398.81;124519;1105;104268;-76
2021/03/14 03:57:46;;;;;;;3.07;1.90;;;;;;;4.47;66.51;98419.41;124564;1106;104309;-77
2021/03/14 04:00:17;;;;;;;5.43;2.10;;;;;;;4.47;66.17;98413.39;124803;1105;104420;-77
2021/03/14 04:02:45;;;;;;;3.80;1.90;;;;;;;4.45;66.36;98410.88;124808;1105;104277;-76
2021/03/14 04:05:14;;;;;;;4.73;1.83;;;;;;;4.46;66.17;98422.04;124502;1106;103405;-77
2021/03/14 04:07:45;;;;;;;4.03;2.13;;;;;;;4.47;66.76;98423.72;124700;1105;104347;-77
2021/03/14 04:10:15;;;;;;;3.87;1.77;;;;;;;4.46;66.03;98416.88;124715;1105;103992;-76
2021/03/14 04:12:43;;;;;;;2.90;1.60;;;;;;;4.46;66.43;98409.13;124764;1105;104217;-77
2021/03/14 04:15:15;;;;;;;5.30;2.13;;;;;;;4.46;66.56;98401.39;124558;1105;104108;-77
2021/03/14 04:17:44;;;;;;;3.70;2.10;;;;;;;4.46;66.17;98411.72;124598;1105;104680;-77
2021/03/14 04:20:16;;;;;;;3.70;1.90;;;;;;;4.45;66.49;98402.29;124525;1109;105156;-76
2021/03/14 04:22:48;;;;;;;2.80;1.80;;;;;;;4.44;66.00;98403.19;124566;1105;104185;-76
2021/03/14 04:25:16;;;;;;;3.90;1.80;;;;;;;4.43;66.16;98417.00;124584;1105;104165;-76
2021/03/14 04:27:45;;;;;;;3.30;1.83;;;;;;;4.43;66.17;98404.93;124596;1105;104246;-76
2021/03/14 04:30:13;;;;;;;3.87;2.17;;;;;;;4.44;65.97;98405.77;124498;1106;104217;-77
2021/03/14 04:32:41;;;;;;;2.90;1.90;;;;;;;4.44;66.61;98400.61;124747;1105;104290;-76
2021/03/14 04:35:10;;;;;;;3.70;1.97;;;;;;;4.43;66.04;98397.19;124556;1109;104008;-77
2021/03/14 04:37:39;;;;;;;3.90;2.00;;;;;;;4.43;66.12;98392.02;124616;1105;104237;-77
2021/03/14 04:40:12;;;;;;;3.17;2.07;;;;;;;4.42;66.30;98400.67;124543;1106;104159;-76
2021/03/14 04:42:45;;;;;;;4.50;2.00;;;;;;;4.42;66.12;98397.25;124553;1109;104327;-77
2021/03/14 04:45:13;;;;;;;4.67;2.07;;;;;;;4.42;66.26;98404.98;124495;1106;104602;-77
2021/03/14 04:47:42;;;;;;;2.90;1.60;;;;;;;4.41;65.85;98406.73;124611;1105;104252;-77
2021/03/14 04:50:12;;;;;;;5.00;2.27;;;;;;;4.40;66.50;98412.79;124558;1105;104220;-75
2021/03/14 04:52:42;;;;;;;3.87;2.03;;;;;;;4.39;66.21;98416.27;124538;1108;104112;-76
2021/03/14 04:55:12;;;;;;;4.03;2.37;;;;;;;4.39;66.13;98411.11;124555;1106;104273;-77
2021/03/14 04:57:41;;;;;;;5.70;2.47;;;;;;;4.39;65.74;98402.53;124518;1106;104311;-77
2021/03/14 05:00:11;;;;;;;3.80;1.93;;;;;;;4.39;65.89;98405.11;124563;1106;104152;-77
2021/03/14 05:02:41;;;;;;;4.87;2.40;;;;;;;4.38;65.96;98408.59;124509;1109;104191;-77
2021/03/14 05:05:11;;;;;;;4.45;2.10;;;;;;;4.38;65.65;98403.42;124699;1105;104211;-77
2021/03/14 05:07:42;;;;;;;4.70;2.10;;;;;;;4.38;65.96;98403.42;124540;1105;104236;-77
2021/03/14 05:10:14;;;;;;;4.70;2.17;;;;;;;4.38;66.23;98393.94;124497;1109;104149;-77
2021/03/14 05:12:42;;;;;;;4.83;2.50;;;;;;;4.40;66.04;98401.63;124457;1105;104140;-77
2021/03/14 05:15:11;;;;;;;3.70;2.00;;;;;;;4.39;66.25;98399.95;124764;1105;104213;-76
2021/03/14 05:17:40;;;;;;;4.70;2.27;;;;;;;4.40;66.12;98397.30;124611;1109;104176;-77
2021/03/14 05:20:10;;;;;;;8.77;2.30;;;;;;;4.43;65.46;98399.77;124600;1106;104174;-77
2021/03/14 05:22:39;;;;;;;4.27;2.17;;;;;;;4.46;65.42;98403.97;124513;1105;104364;-76
2021/03/14 05:25:07;;;;;;;4.60;2.07;;;;;;;4.50;66.00;98418.48;124569;1105;103916;-77
2021/03/14 05:27:35;;;;;;;5.03;2.00;;;;;;;4.58;65.59;98413.86;124544;1105;104242;-77
2021/03/14 05:30:06;;;;;;;4.70;2.50;;;;;;;4.63;65.45;98405.93;124719;1105;104146;-77
2021/03/14 05:32:33;;;;;;;3.23;2.00;;;;;;;4.72;65.51;98403.02;124773;1106;104221;-77
2021/03/14 05:35:01;;;;;;;4.87;2.30;;;;;;;4.77;65.12;98396.77;124652;1105;104213;-77
2021/03/14 05:37:28;;;;;;;4.90;2.17;;;;;;;4.82;65.23;98388.84;124533;1105;104215;-76
2021/03/14 05:39:55;;;;;;;5.07;2.40;;;;;;;4.92;65.00;98390.17;124672;1105;104277;-77
2021/03/14 05:42:22;;;;;;;2.87;1.98;;;;;;;5.02;64.17;98396.65;124592;1108;104185;-78
2021/03/14 05:44:50;;;;;;;4.57;2.33;;;;;;;5.14;64.49;98401.34;124759;1105;104194;-77
2021/03/14 05:47:18;;;;;;;3.83;2.27;;;;;;;5.37;63.20;98386.65;124545;1105;104698;-77
2021/03/14 05:49:46;;;;;;;7.80;2.40;;;;;;;5.50;62.96;98405.94;124556;1108;104181;-78
2021/03/14 05:52:19;;;;;;;5.37;2.37;;;;;;;5.68;63.07;98409.52;124530;1105;104203;-77
2021/03/14 05:54:47;;;;;;;4.00;2.10;;;;;;;6.08;62.46;98413.03;124465;1109;104226;-78
2021/03/14 05:57:17;;;;;;;6.90;2.70;;;;;;;6.32;62.34;98420.59;124535;1105;103189;-76
2021/03/14 05:59:54;;;;;;;4.17;1.80;;;;;;;6.94;59.82;98426.42;124588;1105;104271;-77
2021/03/14 06:02:21;;;;;;;;;;;;;;;7.34;60.04;98427.12;124774;1106;104231;-76
2021/03/14 06:04:52;;;;;;;;;;;;;;;7.43;58.91;98427.54;124828;1105;104600;-77
2021/03/14 06:07:21;;;;;;;3.27;2.10;;;;;;;7.54;58.97;98421.81;124628;1105;103003;-78
2021/03/14 06:09:48;;;;;;;5.53;2.50;;;;;;;8.22;57.88;98427.91;124606;1107;104347;-77
2021/03/14 06:12:15;;;;;;;6.37;2.40;;;;;;;8.53;56.35;98413.36;124599;1105;104239;-77
2021/03/14 06:14:43;;;;;;;5.10;2.70;;;;;;;8.36;55.51;98420.27;124619;1106;104111;-77
2021/03/14 06:17:10;;;;;;;4.90;2.60;;;;;;;7.94;56.94;98412.07;124787;1105;104259;-77
2021/03/14 06:19:37;;;;;;;5.40;2.73;;;;;;;7.58;57.36;98400.02;124573;1105;104201;-76
2021/03/14 06:22:21;;;;;;;5.00;2.42;;;;;;;7.42;57.96;98409.46;124546;1105;104210;-76
2021/03/14 06:24:50;;;;;;;4.40;2.55;;;;;;;7.87;57.58;98404.57;124502;1105;104377;-77
2021/03/14 06:27:53;;;;;;;4.33;2.63;;;;;;;7.88;57.66;98395.87;124616;1105;104206;-76
2021/03/14 06:30:29;;;;;;;4.53;2.80;;;;;;;8.64;56.26;98408.44;124516;1105;104239;-77
2021/03/14 06:33:07;;;;;;;5.80;2.57;;;;;;;9.66;55.60;98395.74;124557;1105;104139;-78
2021/03/14 06:35:38;;;;;;;3.63;2.27;;;;;;;10.72;52.86;98408.53;124760;1105;104210;-77
2021/03/14 06:38:28;;;;;;;5.65;3.10;;;;;;;10.57;51.29;98410.30;124740;1105;104271;-77
2021/03/14 06:41:02;;;;;;;5.93;2.60;;;;;;;10.83;51.38;98410.48;124563;1105;104130;-77
2021/03/14 06:43:41;;;;;;;4.80;2.40;;;;;;;12.18;49.83;98416.45;124692;1106;104245;-78
2021/03/14 06:46:29;;;;;;;5.60;2.10;;;;;;;13.19;47.81;98406.83;124587;1105;103424;-77
2021/03/14 06:49:10;;;;;;;4.10;2.13;;;;;;;12.88;47.17;98402.91;124593;1105;104172;-78
2021/03/14 06:51:43;;;;;;;3.73;2.33;;;;;;;11.88;46.94;98411.53;124522;1105;104200;-78
2021/03/14 06:54:18;;;;;;;3.77;2.30;;;;;;;11.11;47.40;98420.00;124562;1105;104217;-78
2021/03/14 06:57:08;;;;;;;5.30;2.43;;;;;;;10.48;48.79;98436.94;124596;1105;104146;-77
2021/03/14 06:59:40;;;;;;;5.47;2.40;;;;;;;9.87;50.30;98435.31;124768;1105;104322;-76
2021/03/14 07:02:13;;;;;;;4.83;2.37;;;;;;;9.80;51.23;98435.77;124741;1105;104108;-76
2021/03/14 07:04:51;;;;;;;3.40;2.10;;;;;;;9.45;51.38;98427.36;124692;1105;104239;-77
2021/03/14 07:07:18;;;;;;;6.20;2.20;;;;;;;9.51;52.09;98435.66;124563;1105;104297;-77
2021/03/14 07:09:51;;;;;;;4.65;2.00;;;;;;;9.66;51.60;98429.58;124521;1105;104245;-75
2021/03/14 07:12:30;;;;;;;3.63;2.20;;;;;;;10.40;51.83;98428.73;124557;1106;104205;-78
2021/03/14 07:15:09;;;;;;;3.23;2.20;;;;;;;11.47;49.83;98417.64;124526;1105;104242;-77
2021/03/14 07:17:37;;;;;;;4.77;2.00;;;;;;;12.21;48.73;98431.95;124712;1105;104101;-77
2021/03/14 07:20:15;;;;;;;3.67;2.03;;;;;;;12.28;47.17;98414.07;124659;1105;104133;-77
2021/03/14 07:23:16;;;;;;;5.03;2.33;;;;;;;12.73;47.08;98414.44;124493;1106;104258;-76
2021/03/14 07:25:46;;;;;;;3.83;2.13;;;;;;;12.63;46.33;98430.79;124476;1109;104212;-77
2021/03/14 07:28:14;;;;;;;4.13;2.10;;;;;;;13.25;45.08;98422.91;124576;1106;104175;-77
2021/03/14 07:30:42;;;;;;;5.03;2.43;;;;;;;13.37;44.23;98422.98;124528;1105;104098;-76
2021/03/14 07:33:11;;;;;;;3.70;2.03;;;;;;;13.11;44.58;98415.21;124581;1106;104107;-78
2021/03/14 07:35:40;;;;;;;4.07;2.13;;;;;;;13.41;44.64;98403.48;124568;1105;104133;-78
2021/03/14 07:38:11;;;;;;;4.87;2.07;;;;;;;14.35;44.23;98412.09;124527;1106;104229;-78
2021/03/14 07:40:39;;;;;;;4.93;2.33;;;;;;;15.90;43.17;98408.52;124565;1108;104621;-78
2021/03/14 07:43:06;;;;;;;4.07;2.30;;;;;;;17.40;41.52;98410.43;124507;1109;104252;-79
2021/03/14 07:45:34;;;;;;;6.17;2.30;;;;;;;18.25;39.48;98419.46;124476;1105;104159;-79
2021/03/14 07:48:02;;;;;;;5.00;2.30;;;;;;;18.56;37.59;98412.99;124545;1105;104210;-78
2021/03/14 07:50:39;;;;;;;3.20;1.87;;;;;;;18.89;35.92;98394.97;124542;1106;104548;-78
2021/03/14 07:53:09;;;;;;;3.93;2.03;;;;;;;19.65;36.01;98411.33;124526;1106;104236;-79
2021/03/14 07:55:39;;;;;;;5.70;1.80;;;;;;;19.92;33.73;98398.00;124467;1109;104262;-79
2021/03/14 07:58:12;;;;;;;3.10;2.10;;;;;;;20.78;32.86;98394.59;124538;1105;104137;-79
2021/03/14 08:00:41;;;;;;;5.70;1.90;;;;;;;21.28;31.39;98394.64;124569;1108;104173;-80
2021/03/14 08:03:10;;;;;;;3.43;1.93;;;;;;;21.45;31.15;98398.16;124518;1109;104169;-79
2021/03/14 08:05:41;;;;;;;4.90;1.80;;;;;;;21.62;31.46;98393.72;124504;1109;104233;-79
2021/03/14 08:08:10;;;;;;;3.73;1.77;;;;;;;21.97;31.69;98387.26;124543;1105;104012;-80
2021/03/14 08:10:43;;;;;;;3.33;1.80;;;;;;;22.18;29.01;98381.46;124540;1106;104125;-80
2021/03/14 08:13:17;;;;;;;3.33;2.00;;;;;;;22.39;28.45;98384.41;124501;1106;104056;-79
2021/03/14 08:15:59;;;;;;;6.80;2.40;;;;;;;22.35;29.23;98384.92;124554;1109;104407;-79
2021/03/14 08:18:34;;;;;;;3.30;1.80;;;;;;;22.09;29.28;98382.48;124546;1105;104240;-80
2021/03/14 08:21:02;;;;;;;4.00;1.90;;;;;;;21.79;27.01;98376.81;124492;1105;103992;-79
2021/03/14 08:23:44;;;;;;;3.47;1.90;;;;;;;21.30;28.12;98370.62;124547;1109;104200;-80
2021/03/14 08:26:35;;;;;;;2.87;1.90;;;;;;;21.39;28.89;98381.09;124547;1106;104213;-79
2021/03/14 08:29:10;;;;;;;4.70;2.17;;;;;;;21.46;28.87;98381.25;124777;1105;101658;-80
2021/03/14 08:31:44;;;;;;;3.33;1.80;;;;;;;21.62;28.73;98369.84;124489;1106;103038;-79
2021/03/14 08:34:19;;;;;;;4.43;2.20;;;;;;;21.50;27.81;98377.28;124717;1105;104101;-80
2021/03/14 08:36:48;;;;;;;4.00;2.13;;;;;;;21.54;28.20;98373.30;124567;1106;104147;-79
2021/03/14 08:39:23;;;;;;;6.33;2.20;;;;;;;21.61;28.55;98362.87;124505;1105;104685;-79
2021/03/14 08:41:59;;;;;;;4.93;2.00;;;;;;;21.63;28.65;98359.06;124680;1105;104137;-79
2021/03/14 08:44:31;;;;;;;4.47;2.37;;;;;;;21.84;28.67;98371.00;124748;1105;104239;-79
2021/03/14 08:47:09;;;;;;;4.17;1.97;;;;;;;22.31;28.42;98350.73;124678;1106;104630;-79
2021/03/14 08:49:45;;;;;;;4.03;2.20;;;;;;;21.91;27.91;98374.66;124506;1105;102973;-78
2021/03/14 08:52:13;;;;;;;4.10;2.20;;;;;;;21.49;28.21;98388.88;124530;1105;104572;-79
2021/03/14 08:54:50;;;;;;;3.63;2.00;;;;;;;21.41;28.59;98399.49;124784;1105;104213;-79
2021/03/14 08:57:21;;;;;;;3.90;2.10;;;;;;;21.33;26.39;98402.11;124507;1105;104201;-79
2021/03/14 08:59:57;;;;;;;3.90;1.70;;;;;;;20.80;26.24;98392.62;124476;1105;104159;-79
2021/03/14 09:02:28;;;;;;;3.30;1.80;;;;;;;19.56;27.91;98414.87;124548;1105;105281;-78
2021/03/14 09:05:13;;;;;;;3.47;1.87;;;;;;;18.80;28.46;98412.50;124563;1105;104325;-79
2021/03/14 09:08:01;;;;;;;2.85;1.40;;;;;;;17.90;29.74;98415.61;124536;1106;101746;-79
2021/03/14 09:10:38;;;;;;;3.37;1.67;;;;;;;18.16;30.22;98415.87;124574;1105;104290;-78
2021/03/14 09:13:29;;;;;;;;;;;;;;;18.78;30.13;98417.11;124582;1105;104300;-78
2021/03/14 09:16:15;;;;;;;3.30;1.50;;;;;;;18.86;29.69;98405.83;124568;1105;104621;-80
2021/03/14 09:18:57;;;;;;;5.93;1.90;;;;;;;19.09;29.38;98406.26;124554;1106;104165;-80
2021/03/14 09:21:25;;;;;;;3.70;1.50;;;;;;;19.37;29.51;98425.55;124553;1105;104290;-79
2021/03/14 09:23:56;;;;;;;2.70;1.50;;;;;;;19.70;30.29;98422.28;124844;1105;104644;-79
2021/03/14 09:26:30;;;;;;;4.10;1.70;;;;;;;20.17;28.54;98428.14;124497;1106;104252;-79
2021/03/14 09:29:09;;;;;;;3.83;1.40;;;;;;;20.25;27.58;98419.42;124799;1105;104341;-79
2021/03/14 09:31:41;;;;;;;2.67;1.50;;;;;;;20.02;28.55;98423.55;124548;1106;103607;-80
2021/03/14 09:34:19;;;;;;;3.23;1.50;;;;;;;19.32;28.09;98442.69;124595;1106;104602;-79
2021/03/14 09:36:50;;;;;;;2.30;1.20;;;;;;;18.99;28.80;98469.70;124578;1106;102807;-80
2021/03/14 09:39:24;;;;;;;3.45;1.60;;;;;;;18.99;28.13;98459.13;124508;1105;104258;-80
2021/03/14 09:42:20;;;;;;;3.53;1.40;;;;;;;18.80;27.74;98472.42;124509;1105;104104;-80
2021/03/14 09:45:09;;;;;;;2.97;1.33;;;;;;;17.88;28.93;98469.48;124630;1105;104198;-80
2021/03/14 09:47:56;;;;;;;2.97;1.70;;;;;;;17.40;29.49;98472.84;124513;1105;104166;-80
2021/03/14 09:50:39;;;;;;;2.53;1.40;;;;;;;16.19;29.97;98464.80;124757;1105;104124;-80
2021/03/14 09:53:07;;;;;;;3.40;1.40;;;;;;;15.26;30.58;98484.64;124506;1108;104146;-78
2021/03/14 09:55:37;;;;;;;2.17;1.37;;;;;;;14.32;31.43;98477.89;124627;1109;104133;-79
2021/03/14 09:58:09;;;;;;;4.40;1.80;;;;;;;13.59;33.52;98493.81;124576;1105;105240;-78
2021/03/14 10:00:37;;;;;;;2.80;1.60;;;;;;;13.04;33.63;98487.23;124584;1109;104177;-78
2021/03/14 10:03:09;;;;;;;4.30;1.70;;;;;;;12.52;35.88;98489.98;124543;1105;104176;-80
2021/03/14 10:05:55;;;;;;;2.72;1.65;;;;;;;11.99;36.50;98497.02;124588;1105;104171;-79
2021/03/14 10:08:28;;;;;;;3.77;1.80;;;;;;;11.61;38.04;98491.64;124576;1105;104194;-79
2021/03/14 10:11:03;;;;;;;3.77;1.93;;;;;;;12.21;39.02;98492.08;124492;1109;104104;-77
2021/03/14 10:13:33;;;;;;;2.77;1.70;;;;;;;12.95;38.12;98485.27;124539;1106;104563;-79
2021/03/14 10:16:05;;;;;;;2.90;1.60;;;;;;;13.43;37.39;98488.00;124562;1105;104270;-79
2021/03/14 10:18:32;;;;;;;4.37;1.70;;;;;;;14.02;36.52;98485.45;124545;1105;104350;-80
2021/03/14 10:21:25;;;;;;;4.70;1.90;;;;;;;14.57;36.65;98489.20;124547;1109;104248;-79
2021/03/14 10:24:24;;;;;;;3.17;1.60;;;;;;;14.68;35.29;98479.53;124612;1105;104133;-79
2021/03/14 10:27:21;;;;;;;2.93;1.47;;;;;;;14.13;34.96;98493.34;124627;1105;104188;-79
2021/03/14 10:30:07;;;;;;;4.20;1.67;;;;;;;13.99;36.24;98496.14;124566;1109;104104;-79
2021/03/14 10:32:49;;;;;;;3.67;2.00;;;;;;;13.99;35.40;98511.86;124520;1105;104220;-79
2021/03/14 10:35:24;;;;;;;4.33;1.70;;;;;;;13.66;36.25;98517.80;124547;1105;103399;-79
2021/03/14 10:37:55;;;;;;;3.43;1.70;;;;;;;13.55;36.15;98514.16;124613;1109;104126;-79
2021/03/14 10:40:25;;;;;;;4.23;1.60;;;;;;;13.18;36.89;98513.31;124590;1105;104229;-78
2021/03/14 10:43:25;;;;;;;3.70;1.60;;;;;;;12.87;37.00;98516.35;124580;1109;104190;-79
2021/03/14 10:46:00;;;;;;;3.37;1.80;;;;;;;12.59;37.83;98523.48;124530;1108;103954;-79
2021/03/14 10:48:29;;;;;;;3.80;2.07;;;;;;;12.26;38.43;98508.28;124563;1109;104152;-80
2021/03/14 10:51:01;;;;;;;5.10;2.00;;;;;;;11.85;38.89;98529.29;124574;1105;104128;-79
2021/03/14 10:53:29;;;;;;;3.77;1.90;;;;;;;11.52;39.79;98534.02;124582;1106;104184;-79
2021/03/14 10:56:38;;;;;;;4.37;2.03;;;;;;;11.89;40.87;98533.38;124603;1106;104214;-79
2021/03/14 10:59:21;;;;;;;5.60;2.77;;;;;;;12.42;39.58;98513.32;124550;1105;104271;-79
2021/03/14 11:02:16;;;;;;;5.87;2.40;;;;;;;12.88;40.25;98533.72;124572;1105;104133;-79
2021/03/14 11:04:58;;;;;;;3.63;1.77;;;;;;;13.06;39.40;98532.45;124634;1105;104136;-79
2021/03/14 11:07:31;;;;;;;3.40;1.90;;;;;;;12.97;38.36;98505.16;124548;1105;104299;-79
2021/03/14 11:10:14;;;;;;;3.23;1.80;;;;;;;13.00;38.04;98530.27;124547;1105;104105;-79
2021/03/14 11:12:47;;;;;;;5.57;2.40;;;;;;;12.63;37.90;98540.63;124495;1106;104159;-78
2021/03/14 11:15:29;;;;;;;5.47;2.20;;;;;;;12.04;38.89;98548.06;124598;1105;104101;-80
2021/03/14 11:18:22;;;;;;;4.50;2.10;;;;;;;11.39;40.59;98542.61;124506;1105;104235;-80
2021/03/14 11:21:09;;;;;;;5.10;2.17;;;;;;;10.85;41.36;98571.14;124570;1105;103034;-80
2021/03/14 11:23:39;;;;;;;3.37;2.00;;;;;;;10.45;41.88;98577.03;124578;1105;103156;-79
2021/03/14 11:26:26;;;;;;;4.43;2.40;;;;;;;10.09;42.85;98564.33;124596;1105;104147;-79
2021/03/14 11:28:54;;;;;;;6.37;2.60;;;;;;;9.78;44.09;98566.03;124505;1105;105586;-79
2021/03/14 11:31:28;;;;;;;6.97;2.27;;;;;;;9.52;44.39;98577.89;124515;1105;104178;-79
2021/03/14 11:33:57;;;;;;;2.80;1.73;;;;;;;9.28;44.87;98584.39;124758;1106;103086;-79
2021/03/14 11:36:28;;;;;;;3.45;1.90;;;;;;;9.01;45.20;98558.94;124547;1106;104169;-79
2021/03/14 11:39:22;;;;;;;4.00;2.60;;;;;;;8.79;45.30;98584.34;124505;1105;104232;-79
2021/03/14 11:41:57;;;;;;;4.53;2.07;;;;;;;8.65;45.52;98592.03;124562;1109;104383;-79
2021/03/14 11:44:43;;;;;;;3.07;1.93;;;;;;;8.52;45.84;98599.59;124601;1105;104018;-79
2021/03/14 11:47:10;;;;;;;3.13;1.90;;;;;;;8.43;46.31;98587.05;124587;1106;104288;-79